Time;durP1;ratioP1;P1;durP2;ratioP2;P2;SDS_P1;SDS_P2;PMS_P1;PMS_P2;Temp;Humidity;BMP_temperature;BMP_pressure;BME280_temperature;BME280_humidity;BME280_pressure;Samples;Min_cycle;Max_cycle;Signal;HPM_P1;HPM_P2
2022/12/11 00:01:13;;;;;;;68.70;32.72;;;;;;;1.93;100.00;101068.22;5152306;29;20045;-70
2022/12/11 00:03:55;;;;;;;70.75;31.98;;;;;;;1.93;100.00;101060.47;5151496;28;20779;-70
2022/12/11 00:06:27;;;;;;;72.07;32.95;;;;;;;1.87;100.00;101065.94;5153099;29;20201;-70
2022/12/11 00:09:03;;;;;;;69.68;34.05;;;;;;;1.82;100.00;101053.25;5151404;29;20023;-70
2022/12/11 00:11:46;;;;;;;72.22;32.10;;;;;;;2.02;100.00;101061.81;5153137;29;20039;-70
2022/12/11 00:14:39;;;;;;;67.70;31.33;;;;;;;2.00;100.00;101063.63;5153751;28;20027;-70
2022/12/11 00:17:20;;;;;;;68.32;31.02;;;;;;;1.92;100.00;101062.22;5149683;29;20039;-70
2022/12/11 00:19:52;;;;;;;69.32;33.05;;;;;;;1.91;100.00;101054.56;5152209;29;20097;-70
2022/12/11 00:22:23;;;;;;;73.30;32.08;;;;;;;1.89;100.00;101054.63;5152963;29;20027;-70
2022/12/11 00:25:01;;;;;;;67.28;31.30;;;;;;;1.99;100.00;101044.72;5152056;29;20114;-70
2022/12/11 00:27:45;;;;;;;65.13;32.08;;;;;;;2.03;100.00;101061.75;5152096;29;20050;-70
2022/12/11 00:30:17;;;;;;;65.90;30.95;;;;;;;1.95;100.00;101054.34;5152294;29;20054;-70
2022/12/11 00:32:57;;;;;;;63.95;31.05;;;;;;;2.03;100.00;101051.41;5152899;29;20023;-70
2022/12/11 00:35:31;;;;;;;66.07;30.27;;;;;;;1.94;100.00;101059.59;5147911;28;20097;-70
2022/12/11 00:38:08;;;;;;;66.07;31.65;;;;;;;1.94;100.00;101059.59;5152066;29;20499;-70
2022/12/11 00:40:51;;;;;;;64.35;30.58;;;;;;;1.96;100.00;101060.34;5153490;29;20536;-70
2022/12/11 00:43:28;;;;;;;62.03;30.88;;;;;;;1.97;100.00;101059.47;5150423;29;20086;-70
2022/12/11 00:46:24;;;;;;;59.80;29.83;;;;;;;2.09;100.00;101050.31;5151594;29;20491;-70
2022/12/11 00:48:59;;;;;;;59.35;29.83;;;;;;;1.98;100.00;101052.53;5153125;29;20500;-70
2022/12/11 00:51:33;;;;;;;61.47;30.08;;;;;;;2.03;100.00;101058.34;5147238;29;20097;-70
2022/12/11 00:54:09;;;;;;;61.35;29.75;;;;;;;1.99;100.00;101056.78;5150694;28;20019;-70
2022/12/11 00:56:41;;;;;;;59.10;30.38;;;;;;;2.06;100.00;101053.03;5153046;29;20031;-70
2022/12/11 00:59:23;;;;;;;58.05;29.90;;;;;;;2.18;100.00;101052.44;5149971;29;20611;-70
2022/12/11 01:01:55;;;;;;;56.95;29.55;;;;;;;2.03;100.00;101055.75;5152216;29;20562;-70
2022/12/11 01:04:36;;;;;;;60.60;30.38;;;;;;;2.10;100.00;101055.38;5152264;28;20081;-70
2022/12/11 01:07:18;;;;;;;61.30;29.08;;;;;;;2.12;100.00;101052.72;5150188;28;20031;-70
2022/12/11 01:12:45;;;;;;;54.42;27.55;;;;;;;2.09;100.00;101053.72;5151488;29;20114;-70
2022/12/11 01:15:21;;;;;;;51.72;28.10;;;;;;;2.06;100.00;101051.28;5150240;28;20654;-70
2022/12/11 01:17:56;;;;;;;54.42;28.30;;;;;;;2.09;100.00;101052.88;5151818;29;20027;-70
2022/12/11 01:20:35;;;;;;;52.83;27.88;;;;;;;2.12;100.00;101051.00;5134698;29;20417;-70
2022/12/11 01:23:06;;;;;;;51.33;28.23;;;;;;;2.07;100.00;101055.53;5134443;29;20745;-70
2022/12/11 01:25:39;;;;;;;45.85;27.63;;;;;;;2.05;100.00;101054.78;5147566;28;20024;-70
2022/12/11 01:28:13;;;;;;;49.30;26.35;;;;;;;2.07;100.00;101052.94;5133323;29;20043;-70
2022/12/11 01:30:48;;;;;;;55.17;28.33;;;;;;;2.09;100.00;101056.31;5150933;29;20019;-70
2022/12/11 01:33:23;;;;;;;49.85;27.02;;;;;;;1.98;100.00;101043.03;5133035;28;20366;-70
2022/12/11 01:36:22;;;;;;;51.58;27.17;;;;;;;2.27;100.00;101058.94;5131651;29;20053;-70
2022/12/11 01:38:53;;;;;;;49.63;28.13;;;;;;;2.13;100.00;101057.00;5151452;29;20485;-70
2022/12/11 01:41:24;;;;;;;48.40;26.20;;;;;;;2.14;100.00;101063.84;5144530;29;20366;-70
2022/12/11 01:43:58;;;;;;;44.30;26.33;;;;;;;2.16;100.00;101055.13;5150362;28;20166;-70
2022/12/11 01:46:30;;;;;;;;;;;;;;;2.70;100.00;101051.72;5151167;29;20027;-70
2022/12/11 01:49:06;;;;;;;43.83;23.83;;;;;;;2.34;100.00;101047.41;5151017;29;20039;-70
2022/12/11 01:51:56;;;;;;;46.38;25.90;;;;;;;2.42;100.00;101050.44;5147692;29;20033;-70
2022/12/11 01:54:28;;;;;;;42.38;26.00;;;;;;;2.22;100.00;101048.81;5150802;28;20023;-70
2022/12/11 01:57:04;;;;;;;41.58;26.17;;;;;;;2.25;100.00;101040.09;5150089;29;20038;-70
2022/12/11 01:59:39;;;;;;;49.38;25.42;;;;;;;2.25;100.00;101040.91;5148019;29;20028;-70
2022/12/11 02:02:24;;;;;;;38.47;24.17;;;;;;;2.33;100.00;101033.63;5150386;28;20031;-70
2022/12/11 02:04:55;;;;;;;45.15;25.88;;;;;;;2.25;100.00;101042.66;5150043;28;20035;-70
2022/12/11 02:07:34;;;;;;;40.50;25.15;;;;;;;2.24;100.00;101041.00;5149393;29;20035;-70
2022/12/11 02:10:07;;;;;;;44.58;25.42;;;;;;;2.20;100.00;101045.47;5150394;29;20030;-70
2022/12/11 02:12:38;;;;;;;44.90;24.88;;;;;;;2.22;100.00;101045.41;5150450;29;20031;-70
2022/12/11 02:15:15;;;;;;;40.57;25.10;;;;;;;2.30;100.00;101041.53;5149437;28;20026;-70
2022/12/11 02:18:19;;;;;;;44.60;25.60;;;;;;;2.30;100.00;101040.69;5148778;29;20359;-70
2022/12/11 02:21:01;;;;;;;43.97;25.25;;;;;;;2.33;100.00;101045.72;5145750;29;20114;-70
2022/12/11 02:23:51;;;;;;;41.75;23.63;;;;;;;2.41;100.00;101041.88;5150882;28;20061;-70
2022/12/11 02:26:40;;;;;;;42.78;24.10;;;;;;;2.25;100.00;101034.91;5148456;29;20036;-70
2022/12/11 02:29:18;;;;;;;42.15;23.42;;;;;;;2.22;100.00;101037.63;5151198;28;20042;-70
2022/12/11 02:31:57;;;;;;;41.92;24.30;;;;;;;2.25;100.00;101040.09;5148341;29;20027;-70
2022/12/11 02:34:39;;;;;;;41.05;23.13;;;;;;;2.25;100.00;101030.59;5150586;28;20102;-70
2022/12/11 02:37:21;;;;;;;41.03;23.30;;;;;;;2.24;100.00;101033.25;5150003;29;20079;-70
2022/12/11 02:39:55;;;;;;;43.08;24.70;;;;;;;2.17;100.00;101033.53;5148120;29;20032;-70
2022/12/11 02:42:30;;;;;;;38.47;23.02;;;;;;;2.22;100.00;101032.47;5147313;29;20106;-70
2022/12/11 02:45:03;;;;;;;40.15;24.17;;;;;;;2.16;100.00;101031.03;5149428;28;20027;-70
2022/12/11 02:47:36;;;;;;;;;;;;;;;2.64;100.00;101027.81;5147185;29;20042;-70
2022/12/11 02:50:12;;;;;;;35.33;21.02;;;;;;;2.25;100.00;101032.34;5145924;29;19922;-70
2022/12/11 02:52:47;;;;;;;37.08;22.23;;;;;;;2.18;100.00;101037.78;5149639;29;20093;-70
2022/12/11 02:55:19;;;;;;;34.25;21.52;;;;;;;2.14;100.00;101041.41;5149113;28;20034;-70
2022/12/11 02:57:58;;;;;;;34.08;21.17;;;;;;;2.17;100.00;101038.69;5148962;29;20425;-70
2022/12/11 03:00:30;;;;;;;33.05;21.50;;;;;;;2.16;100.00;101039.63;5149319;29;20027;-70
2022/12/11 03:03:02;;;;;;;31.25;20.73;;;;;;;2.14;100.00;101036.25;5149166;29;20396;-70
2022/12/11 03:05:34;;;;;;;34.65;21.20;;;;;;;2.12;100.00;101035.50;5149166;28;20594;-70
2022/12/11 03:08:05;;;;;;;28.80;19.65;;;;;;;2.12;100.00;101030.31;5148109;29;20042;-70
2022/12/11 03:10:36;;;;;;;26.95;18.10;;;;;;;2.10;100.00;101026.13;5149214;29;20027;-70
2022/12/11 03:13:08;;;;;;;27.77;19.10;;;;;;;2.06;100.00;101016.84;5148926;29;20020;-70
2022/12/11 03:16:10;;;;;;;24.27;17.00;;;;;;;2.34;100.00;101021.53;5146875;28;20122;-70
2022/12/11 03:19:00;;;;;;;25.65;17.83;;;;;;;2.22;100.00;101009.22;5148682;29;20023;-70
2022/12/11 03:21:39;;;;;;;26.15;17.35;;;;;;;2.16;100.00;101024.09;5147562;29;20019;-70
2022/12/11 03:24:27;;;;;;;22.80;16.23;;;;;;;2.22;100.00;101016.97;5130043;29;20452;-70
2022/12/11 03:27:05;;;;;;;25.15;16.63;;;;;;;2.13;100.00;101020.81;5148860;29;20027;-70
2022/12/11 03:29:39;;;;;;;24.20;17.48;;;;;;;2.09;100.00;101014.97;5149309;29;20043;-70
2022/12/11 03:32:18;;;;;;;22.13;15.70;;;;;;;2.07;100.00;101008.19;5147746;29;20020;-70
2022/12/11 03:34:55;;;;;;;23.88;15.95;;;;;;;2.04;100.00;101000.56;5149488;28;20102;-70
2022/12/11 03:37:31;;;;;;;21.60;16.42;;;;;;;2.09;100.00;101007.22;5148978;29;20078;-70
2022/12/11 03:40:11;;;;;;;22.50;15.45;;;;;;;2.13;100.00;101005.31;5147763;29;20031;-70
2022/12/11 03:42:45;;;;;;;22.30;15.77;;;;;;;2.09;100.00;101012.38;5148841;29;20382;-70
2022/12/11 03:45:19;;;;;;;21.85;15.85;;;;;;;2.07;100.00;101001.25;5149762;28;20101;-70
2022/12/11 03:47:54;;;;;;;20.90;15.38;;;;;;;2.11;100.00;101002.78;5149190;29;20027;-70
2022/12/11 03:50:29;;;;;;;24.15;16.38;;;;;;;2.13;100.00;100998.41;5147309;28;20081;-70
2022/12/11 03:53:02;;;;;;;24.45;16.23;;;;;;;2.12;100.00;100996.72;5147584;29;20027;-70
2022/12/11 03:55:35;;;;;;;;;;;;;;;2.60;100.00;100994.44;5148280;28;20038;-70
2022/12/11 03:58:06;;;;;;;21.80;14.43;;;;;;;2.15;100.00;100990.56;5147841;29;19918;-70
2022/12/11 04:00:38;;;;;;;21.52;15.77;;;;;;;2.13;100.00;100982.06;5149714;29;20031;-70
2022/12/11 04:03:11;;;;;;;20.83;15.07;;;;;;;2.13;100.00;100976.88;5149682;29;20318;-70
2022/12/11 04:05:48;;;;;;;20.50;15.80;;;;;;;2.23;100.00;100985.84;5148010;29;20023;-70
2022/12/11 04:08:21;;;;;;;20.85;15.55;;;;;;;2.16;100.00;100985.34;5149662;29;20035;-70
2022/12/11 04:13:42;;;;;;;20.73;14.80;;;;;;;2.15;100.00;100986.22;5149877;29;20031;-70
2022/12/11 04:16:13;;;;;;;22.52;15.40;;;;;;;2.21;100.00;100989.44;5148060;28;20027;-70
2022/12/11 04:24:24;;;;;;;21.80;15.10;;;;;;;2.18;100.00;100990.41;5148588;28;20035;-70
2022/12/11 04:26:55;;;;;;;19.98;14.93;;;;;;;2.21;100.00;100989.44;5131100;29;20469;-70
2022/12/11 04:29:27;;;;;;;21.73;15.30;;;;;;;2.12;100.00;100976.06;5152677;29;20027;-70
2022/12/11 04:31:58;;;;;;;22.73;15.65;;;;;;;2.19;100.00;100994.66;5150127;29;20027;-70
2022/12/11 04:34:29;;;;;;;22.48;15.57;;;;;;;2.21;100.00;100990.28;5152110;28;20047;-70
2022/12/11 04:37:01;;;;;;;21.98;15.13;;;;;;;2.16;100.00;100980.16;5152905;29;20469;-70
2022/12/11 04:39:32;;;;;;;19.77;15.35;;;;;;;2.17;100.00;100984.41;5134851;29;20031;-70
2022/12/11 04:42:03;;;;;;;20.90;15.57;;;;;;;2.13;100.00;100976.88;5132661;29;20482;-70
2022/12/11 04:44:34;;;;;;;22.55;15.48;;;;;;;2.14;100.00;100983.72;5150380;28;20473;-70
2022/12/11 04:47:06;;;;;;;19.60;15.10;;;;;;;2.16;100.00;100982.75;5152457;29;20023;-70
2022/12/11 04:49:37;;;;;;;23.48;16.10;;;;;;;2.12;100.00;100970.03;5150492;29;20038;-70
2022/12/11 04:52:08;;;;;;;20.92;14.90;;;;;;;2.13;100.00;100974.31;5152543;29;20069;-70
2022/12/11 04:54:40;;;;;;;24.75;16.70;;;;;;;2.11;100.00;100982.09;5152321;28;20031;-70
2022/12/11 04:57:11;;;;;;;24.23;16.30;;;;;;;2.06;100.00;100971.16;5134662;29;20070;-70
2022/12/11 04:59:42;;;;;;;21.30;15.85;;;;;;;2.12;100.00;100981.22;5149543;29;20061;-70
2022/12/11 05:02:15;;;;;;;23.85;16.42;;;;;;;2.16;100.00;100974.16;5151624;29;20075;-70
2022/12/11 05:04:46;;;;;;;22.17;15.87;;;;;;;2.13;100.00;100972.56;5153186;28;20039;-70
2022/12/11 05:07:17;;;;;;;22.45;16.23;;;;;;;2.03;100.00;100950.63;5150990;29;20382;-70
2022/12/11 05:09:49;;;;;;;18.30;14.70;;;;;;;2.12;100.00;100968.31;5151024;29;20024;-70
2022/12/11 05:12:20;;;;;;;19.80;14.98;;;;;;;2.06;100.00;100968.59;5151305;28;20031;-70
2022/12/11 05:14:52;;;;;;;22.33;15.32;;;;;;;2.10;100.00;100969.28;5149795;28;20019;-70
2022/12/11 05:17:23;;;;;;;20.15;15.23;;;;;;;2.10;100.00;100967.53;5150246;29;20038;-70
2022/12/11 05:19:55;;;;;;;22.77;15.88;;;;;;;2.11;100.00;100963.19;5151694;29;20070;-70
2022/12/11 05:22:26;;;;;;;21.90;15.82;;;;;;;2.12;100.00;100965.72;5150397;29;20031;-70
2022/12/11 05:24:57;;;;;;;21.88;16.05;;;;;;;2.11;100.00;100965.78;5150649;29;20059;-70
2022/12/11 05:27:29;;;;;;;20.92;15.70;;;;;;;2.11;100.00;100961.44;5151674;29;20042;-69
2022/12/11 05:30:01;;;;;;;22.30;16.17;;;;;;;2.11;100.00;100968.34;5151397;29;20499;-70
2022/12/11 05:32:32;;;;;;;20.52;15.18;;;;;;;2.13;100.00;100957.03;5148573;29;20039;-70
2022/12/11 05:35:04;;;;;;;20.45;14.82;;;;;;;2.12;100.00;100957.97;5150495;28;20055;-70
2022/12/11 05:37:35;;;;;;;22.33;15.52;;;;;;;2.13;100.00;100948.47;5152760;29;20923;-70
2022/12/11 05:40:07;;;;;;;23.65;15.15;;;;;;;2.13;100.00;100954.47;5149133;28;20032;-70
2022/12/11 05:42:38;;;;;;;19.27;14.98;;;;;;;2.13;100.00;100951.88;5151153;29;20027;-70
2022/12/11 05:45:10;;;;;;;20.23;14.27;;;;;;;2.18;100.00;100960.22;5152225;29;20030;-70
2022/12/11 05:47:41;;;;;;;22.33;14.52;;;;;;;2.15;100.00;100955.22;5149801;29;20035;-70
2022/12/11 05:50:12;;;;;;;21.05;14.70;;;;;;;2.17;100.00;100966.31;5147342;29;20035;-70
2022/12/11 05:52:44;;;;;;;19.88;14.45;;;;;;;2.19;100.00;100969.66;5132817;29;20027;-70
2022/12/11 05:55:15;;;;;;;20.02;15.23;;;;;;;2.21;100.00;100964.44;5150371;28;20031;-70
2022/12/11 05:57:46;;;;;;;20.08;15.15;;;;;;;2.22;100.00;100965.25;5148593;29;20054;-70
2022/12/11 06:00:18;;;;;;;22.65;14.77;;;;;;;2.18;100.00;100968.00;5149342;29;20038;-70
2022/12/11 06:02:49;;;;;;;19.25;14.07;;;;;;;2.20;100.00;100967.94;5150210;29;20037;-70
2022/12/11 06:05:20;;;;;;;21.13;14.25;;;;;;;2.13;100.00;100958.78;5149260;28;20106;-70
2022/12/11 06:07:52;;;;;;;20.85;14.80;;;;;;;2.24;100.00;100968.63;5149536;29;20039;-70
2022/12/11 06:10:23;;;;;;;20.77;15.10;;;;;;;2.22;100.00;100966.09;5149679;29;20019;-70
2022/12/11 06:12:54;;;;;;;20.50;14.35;;;;;;;2.24;100.00;100964.28;5132841;29;20125;-70
2022/12/11 06:15:26;;;;;;;20.20;14.55;;;;;;;2.19;100.00;100958.47;5150712;28;20046;-70
2022/12/11 06:17:57;;;;;;;20.45;15.15;;;;;;;2.23;100.00;100972.09;5148471;29;20218;-70
2022/12/11 06:20:32;;;;;;;21.42;15.05;;;;;;;2.29;100.00;100964.91;5149375;29;20027;-70
2022/12/11 06:23:04;;;;;;;19.65;13.77;;;;;;;2.22;100.00;100967.84;5150819;29;20031;-70
2022/12/11 06:25:38;;;;;;;21.17;14.45;;;;;;;2.31;100.00;100964.81;5149756;28;20104;-70
2022/12/11 06:28:10;;;;;;;21.67;15.77;;;;;;;2.23;100.00;100959.19;5150029;29;20039;-70
2022/12/11 06:30:41;;;;;;;21.10;13.82;;;;;;;2.15;100.00;100946.63;5149281;29;20030;-70
2022/12/11 06:33:12;;;;;;;18.90;14.32;;;;;;;2.25;100.00;100963.38;5150432;28;20734;-70
2022/12/11 06:35:44;;;;;;;22.98;15.25;;;;;;;2.25;100.00;100965.13;5150729;29;20051;-70
2022/12/11 06:38:16;;;;;;;20.85;15.20;;;;;;;2.26;100.00;100966.78;5148524;29;20059;-70
2022/12/11 06:40:58;;;;;;;19.45;14.18;;;;;;;2.35;100.00;100958.56;5148828;29;20067;-70
2022/12/11 06:43:34;;;;;;;19.13;14.55;;;;;;;2.34;100.00;100965.50;5149815;28;20082;-70
2022/12/11 06:46:08;;;;;;;21.67;15.43;;;;;;;2.29;100.00;100959.72;5148930;29;20081;-70
2022/12/11 06:48:43;;;;;;;20.65;15.05;;;;;;;2.19;100.00;100946.41;5148490;29;20046;-70
2022/12/11 06:51:17;;;;;;;19.13;14.05;;;;;;;2.31;100.00;100955.34;5145058;28;20110;-70
2022/12/11 06:53:51;;;;;;;20.40;14.38;;;;;;;2.31;100.00;100951.88;5148233;28;20030;-70
2022/12/11 06:56:23;;;;;;;19.10;14.55;;;;;;;2.26;100.00;100957.28;5149452;29;20181;-70
2022/12/11 06:58:55;;;;;;;20.70;15.27;;;;;;;2.25;100.00;100953.03;5148993;29;20497;-70
2022/12/11 07:01:27;;;;;;;19.92;14.77;;;;;;;2.25;100.00;100949.63;5149078;28;20381;-70
2022/12/11 07:03:59;;;;;;;20.05;14.63;;;;;;;2.24;100.00;100951.38;5150220;28;20046;-70
2022/12/11 07:06:30;;;;;;;19.85;14.43;;;;;;;2.27;100.00;100965.88;5150047;29;20388;-70
2022/12/11 07:09:05;;;;;;;20.40;15.35;;;;;;;2.32;100.00;100963.91;5148266;29;20049;-70
2022/12/11 07:11:36;;;;;;;18.80;14.23;;;;;;;2.23;100.00;100972.94;5148357;29;20477;-70
2022/12/11 07:14:08;;;;;;;19.45;15.52;;;;;;;2.24;100.00;100976.38;5149438;28;20030;-70
2022/12/11 07:16:39;;;;;;;19.83;14.07;;;;;;;2.26;100.00;100970.22;5149406;29;20023;-70
2022/12/11 07:19:10;;;;;;;20.60;15.48;;;;;;;2.25;100.00;100967.72;5149337;29;20074;-70
2022/12/11 07:21:42;;;;;;;21.85;15.70;;;;;;;2.19;100.00;100961.91;5149568;29;20031;-70
2022/12/11 07:24:13;;;;;;;19.67;13.95;;;;;;;2.25;100.00;100971.13;5149584;28;20159;-70
2022/12/11 07:26:44;;;;;;;19.85;14.98;;;;;;;2.27;100.00;100981.38;5145390;29;21079;-70
2022/12/11 07:29:16;;;;;;;20.40;15.07;;;;;;;2.26;100.00;100982.31;5149582;28;20035;-70
2022/12/11 07:31:47;;;;;;;21.20;15.43;;;;;;;2.25;100.00;100989.22;5150110;29;20028;-70
2022/12/11 07:34:18;;;;;;;20.50;14.85;;;;;;;2.26;100.00;100987.47;5148371;28;20462;-70
2022/12/11 07:36:49;;;;;;;20.17;14.70;;;;;;;2.25;100.00;100986.63;5150828;29;20500;-70
2022/12/11 07:39:21;;;;;;;19.85;14.07;;;;;;;2.18;100.00;100965.41;5149165;29;20024;-70
2022/12/11 07:41:52;;;;;;;20.70;14.98;;;;;;;2.22;100.00;100978.19;5148301;29;20083;-70
2022/12/11 07:44:23;;;;;;;21.30;15.15;;;;;;;2.24;100.00;100979.81;5145907;28;20054;-70
2022/12/11 07:46:55;;;;;;;21.25;15.52;;;;;;;2.26;100.00;100971.97;5149720;29;20030;-70
2022/12/11 07:49:26;;;;;;;22.90;15.07;;;;;;;2.27;100.00;100981.38;5145944;29;20050;-70
2022/12/11 07:51:57;;;;;;;20.75;15.55;;;;;;;2.30;100.00;100976.06;5149775;29;20023;-70
2022/12/11 07:54:28;;;;;;;19.95;15.18;;;;;;;2.29;100.00;100982.16;5150125;28;20035;-70
2022/12/11 07:57:00;;;;;;;23.65;15.75;;;;;;;2.27;100.00;100978.78;5149070;29;20030;-69
2022/12/11 07:59:31;;;;;;;22.42;15.63;;;;;;;2.27;100.00;100987.38;5147083;29;20584;-70
2022/12/11 08:02:03;;;;;;;23.42;16.90;;;;;;;2.24;100.00;100979.81;5138377;29;20028;-70
2022/12/11 08:04:34;;;;;;;23.48;16.52;;;;;;;2.22;100.00;100973.03;5150095;28;20040;-69
2022/12/11 08:07:06;;;;;;;20.88;15.60;;;;;;;2.21;100.00;100979.09;5144884;29;20039;-70
2022/12/11 08:09:37;;;;;;;22.67;16.33;;;;;;;2.23;100.00;100982.44;5150826;29;20062;-70
2022/12/11 08:12:08;;;;;;;23.52;17.05;;;;;;;2.23;100.00;100980.69;5145599;29;20054;-70
2022/12/11 08:14:40;;;;;;;24.27;16.80;;;;;;;2.22;100.00;100983.34;5148549;28;20024;-69
2022/12/11 08:17:11;;;;;;;29.17;18.08;;;;;;;2.26;100.00;100982.31;5151608;29;20030;-70
2022/12/11 08:19:42;;;;;;;26.45;17.42;;;;;;;2.25;100.00;100984.06;5133368;29;20043;-70
2022/12/11 08:22:13;;;;;;;22.65;16.75;;;;;;;2.26;100.00;100977.13;5132762;29;20041;-70
2022/12/11 08:24:45;;;;;;;25.83;16.23;;;;;;;2.20;100.00;100967.94;5150652;28;20039;-70
2022/12/11 08:27:17;;;;;;;23.98;16.08;;;;;;;2.28;100.00;100975.31;5148642;29;20031;-70
2022/12/11 08:29:48;;;;;;;22.75;16.70;;;;;;;2.25;100.00;100980.63;5129711;29;20545;-70
2022/12/11 08:32:19;;;;;;;25.48;16.33;;;;;;;2.25;100.00;100984.06;5150682;29;20031;-70
2022/12/11 08:34:51;;;;;;;24.00;16.05;;;;;;;2.27;100.00;100984.78;5146055;23;20138;-68
2022/12/11 08:37:23;;;;;;;23.80;15.93;;;;;;;2.28;100.00;100977.91;5132245;29;20083;-68
2022/12/11 08:39:54;;;;;;;26.30;16.63;;;;;;;2.28;100.00;100985.66;5137366;29;20046;-68
2022/12/11 08:42:25;;;;;;;25.52;17.52;;;;;;;2.31;100.00;100985.50;5138997;29;20038;-69
2022/12/11 08:44:56;;;;;;;23.83;16.00;;;;;;;2.27;100.00;100984.78;5130511;29;20027;-68
2022/12/11 08:47:28;;;;;;;23.67;16.42;;;;;;;2.28;100.00;100977.91;5132830;29;20500;-68
2022/12/11 08:49:59;;;;;;;26.92;17.30;;;;;;;2.31;100.00;100977.72;5130081;29;20408;-68
2022/12/11 08:52:33;;;;;;;23.52;16.77;;;;;;;2.33;100.00;100974.16;5133029;29;20090;-68
2022/12/11 08:55:05;;;;;;;23.15;15.98;;;;;;;2.29;100.00;100975.22;5132867;29;20035;-68
2022/12/11 08:57:38;;;;;;;26.63;16.45;;;;;;;2.29;100.00;100967.47;5128633;29;20782;-68
2022/12/11 09:00:11;;;;;;;24.35;16.40;;;;;;;2.37;100.00;100970.53;5132527;29;20496;-68
2022/12/11 09:02:42;;;;;;;22.27;15.77;;;;;;;2.33;100.00;100973.34;5133092;29;20070;-68
2022/12/11 09:05:14;;;;;;;26.77;16.83;;;;;;;2.34;100.00;100975.84;5131684;28;20110;-68
2022/12/11 09:07:45;;;;;;;23.55;15.90;;;;;;;2.34;100.00;100975.00;5130508;29;20437;-68
2022/12/11 09:10:17;;;;;;;23.25;15.82;;;;;;;2.33;100.00;100966.41;5127949;29;20027;-69
2022/12/11 09:12:48;;;;;;;25.10;16.65;;;;;;;2.32;100.00;100969.91;5130027;29;20036;-69
2022/12/11 09:15:19;;;;;;;24.10;17.38;;;;;;;2.30;100.00;100968.31;5128917;29;20039;-69
2022/12/11 09:17:50;;;;;;;25.02;15.88;;;;;;;2.32;100.00;100976.84;5130420;29;20055;-69
2022/12/11 09:20:22;;;;;;;26.08;16.23;;;;;;;2.26;100.00;100959.03;5124416;29;20500;-68
2022/12/11 09:22:53;;;;;;;27.33;16.10;;;;;;;2.33;100.00;100966.41;5128163;29;20036;-69
2022/12/11 09:25:24;;;;;;;24.02;15.68;;;;;;;2.33;100.00;100978.50;5131256;29;20019;-69
2022/12/11 09:27:56;;;;;;;23.70;16.52;;;;;;;2.31;100.00;100969.97;5122969;29;20744;-68
2022/12/11 09:30:27;;;;;;;27.20;17.58;;;;;;;2.32;100.00;100967.34;5128948;29;20044;-68
2022/12/11 09:32:58;;;;;;;25.80;16.85;;;;;;;2.34;100.00;100972.41;5129812;29;20043;-69
2022/12/11 09:35:30;;;;;;;26.65;17.73;;;;;;;2.34;100.00;100968.09;5139512;29;20062;-68
2022/12/11 09:38:01;;;;;;;26.05;17.48;;;;;;;2.36;100.00;100968.03;5150440;29;20098;-69
2022/12/11 09:40:32;;;;;;;24.00;16.42;;;;;;;2.35;100.00;100967.19;5131519;29;20035;-68
2022/12/11 09:43:22;;;;;;;27.40;17.83;;;;;;;2.48;100.00;100972.59;5148360;29;20027;-69
2022/12/11 09:45:55;;;;;;;26.58;17.58;;;;;;;2.32;100.00;100969.09;5148766;28;20198;-68
2022/12/11 09:48:26;;;;;;;26.00;17.37;;;;;;;2.32;100.00;100956.16;5150244;29;20535;-68
2022/12/11 09:51:04;;;;;;;26.35;17.92;;;;;;;2.37;100.00;100965.34;5147823;29;20077;-69
2022/12/11 09:53:37;;;;;;;24.85;16.67;;;;;;;2.37;100.00;100957.59;5146714;29;20051;-68
2022/12/11 09:56:08;;;;;;;29.67;18.00;;;;;;;2.40;100.00;100957.44;5149179;29;20023;-69
2022/12/11 09:59:00;;;;;;;26.47;17.07;;;;;;;2.59;100.00;100952.22;5146859;28;20054;-69
2022/12/11 10:01:53;;;;;;;28.75;17.83;;;;;;;2.63;100.00;100948.56;5144887;29;20291;-69
2022/12/11 10:04:45;;;;;;;24.08;16.83;;;;;;;2.64;100.00;100954.56;5149752;29;20039;-69
2022/12/11 10:07:40;;;;;;;28.17;17.13;;;;;;;2.71;100.00;100961.09;5151447;29;20031;-69
2022/12/11 10:10:39;;;;;;;23.77;16.38;;;;;;;2.57;100.00;100960.94;5132597;29;20508;-69
2022/12/11 10:13:32;;;;;;;25.55;15.93;;;;;;;2.58;100.00;100957.47;5132686;29;20055;-69
2022/12/11 10:16:09;;;;;;;22.20;15.00;;;;;;;2.48;100.00;100954.50;5131252;29;20133;-69
2022/12/11 10:18:41;;;;;;;25.48;15.35;;;;;;;2.44;100.00;100955.56;5139517;29;20027;-68
2022/12/11 10:21:16;;;;;;;22.05;14.90;;;;;;;2.50;100.00;100960.44;5149006;29;20054;-68
2022/12/11 10:23:58;;;;;;;24.90;15.38;;;;;;;2.57;100.00;100950.59;5145035;28;20039;-69
2022/12/11 10:26:29;;;;;;;22.45;14.73;;;;;;;2.48;100.00;100954.50;5144923;28;20077;-69
2022/12/11 10:29:01;;;;;;;22.50;15.32;;;;;;;2.51;100.00;100956.09;5149485;29;20023;-69
2022/12/11 10:31:47;;;;;;;21.23;14.55;;;;;;;2.63;100.00;100956.31;5146667;29;20243;-71
2022/12/11 10:34:33;;;;;;;25.08;15.50;;;;;;;2.66;100.00;100950.16;5130725;28;20039;-69
2022/12/11 10:37:04;;;;;;;22.33;16.38;;;;;;;2.49;100.00;100947.56;5148017;29;20038;-69
2022/12/11 10:39:36;;;;;;;22.15;14.90;;;;;;;2.52;100.00;100948.25;5144827;29;20023;-68
2022/12/11 10:42:18;;;;;;;23.73;15.88;;;;;;;2.63;100.00;100945.13;5145493;29;20039;-69
2022/12/11 10:44:58;;;;;;;27.17;17.02;;;;;;;2.58;100.00;100940.19;5148374;28;20034;-69
2022/12/11 10:47:30;;;;;;;23.27;16.45;;;;;;;2.37;100.00;100920.56;5146586;29;20059;-69
2022/12/11 10:50:02;;;;;;;23.48;15.98;;;;;;;2.51;100.00;100940.59;5149235;29;20129;-69
2022/12/11 10:52:37;;;;;;;27.63;17.73;;;;;;;2.57;100.00;100938.50;5151557;28;20058;-69
2022/12/11 10:55:26;;;;;;;25.67;17.45;;;;;;;2.70;100.00;100930.16;5149230;29;20027;-69
2022/12/11 10:58:01;;;;;;;25.55;16.90;;;;;;;2.56;100.00;100936.84;5147669;29;20031;-69
2022/12/11 11:00:38;;;;;;;23.75;15.75;;;;;;;2.54;100.00;100920.59;5144433;29;20492;-69
2022/12/11 11:03:22;;;;;;;24.52;16.25;;;;;;;2.72;100.00;100929.13;5149007;29;20118;-69
2022/12/11 11:06:16;;;;;;;23.63;15.70;;;;;;;2.85;100.00;100929.38;5148002;28;20030;-69
2022/12/11 11:08:50;;;;;;;25.83;16.60;;;;;;;2.68;100.00;100933.63;5148436;29;20039;-69
2022/12/11 11:11:21;;;;;;;24.63;16.35;;;;;;;2.64;100.00;100928.69;5149824;29;20042;-69
2022/12/11 11:14:13;;;;;;;23.50;16.13;;;;;;;2.87;100.00;100928.34;5121393;29;20489;-69
2022/12/11 11:16:46;;;;;;;26.77;16.42;;;;;;;2.70;100.00;100931.00;5148759;29;20114;-69
2022/12/11 11:19:25;;;;;;;22.58;16.10;;;;;;;2.80;100.00;100918.41;5149099;28;20031;-69
2022/12/11 11:22:05;;;;;;;23.08;15.85;;;;;;;2.84;100.00;100928.53;5147891;29;20114;-69
2022/12/11 11:24:40;;;;;;;24.58;15.95;;;;;;;2.86;100.00;100921.50;5146713;29;20086;-69
2022/12/11 11:27:26;;;;;;;23.75;15.88;;;;;;;2.92;100.00;100922.97;5149804;29;20031;-69
2022/12/11 11:30:02;;;;;;;25.75;16.00;;;;;;;2.89;100.00;100926.53;5150047;29;20117;-69
2022/12/11 11:32:38;;;;;;;24.05;15.63;;;;;;;2.95;100.00;100924.53;5148425;29;20027;-69
2022/12/11 11:35:16;;;;;;;25.15;16.27;;;;;;;2.89;100.00;100912.78;5148463;28;20325;-69
2022/12/11 11:38:12;;;;;;;24.08;17.63;;;;;;;3.13;100.00;100913.22;5150361;28;20448;-69
2022/12/11 11:41:08;;;;;;;23.58;16.23;;;;;;;3.04;100.00;100913.72;5150586;29;20489;-69
2022/12/11 11:43:45;;;;;;;22.27;16.15;;;;;;;3.03;100.00;100912.03;5152303;28;20031;-69
2022/12/11 11:46:26;;;;;;;23.55;15.40;;;;;;;3.14;100.00;100912.31;5152116;28;20420;-68
2022/12/11 11:49:06;;;;;;;24.45;16.65;;;;;;;3.08;100.00;100905.72;5152643;29;20062;-68
2022/12/11 11:51:41;;;;;;;22.08;15.00;;;;;;;3.13;100.00;100915.81;5132656;29;20069;-69
2022/12/11 11:54:18;;;;;;;23.27;15.82;;;;;;;3.19;100.00;100899.16;5152053;28;20019;-68
2022/12/11 11:56:53;;;;;;;23.10;15.93;;;;;;;3.14;100.00;100901.97;5151433;29;20764;-69